Time;durP1;ratioP1;P1;durP2;ratioP2;P2;SDS_P1;SDS_P2;PMS_P1;PMS_P2;Temp;Humidity;BMP_temperature;BMP_pressure;BME280_temperature;BME280_humidity;BME280_pressure;Samples;Min_cycle;Max_cycle;Signal;HPM_P1;HPM_P2
2022/07/04 00:00:49;;;;;;;2.00;1.80;;;14.50;99.90;;;;;;5001158;28;20703;-85
2022/07/04 00:03:14;;;;;;;5.47;1.90;;;14.40;99.90;;;;;;5041753;28;20226;-86
2022/07/04 00:05:40;;;;;;;2.97;2.13;;;14.40;99.90;;;;;;5004591;28;20595;-85
2022/07/04 00:08:06;;;;;;;2.67;2.23;;;14.40;99.90;;;;;;5038898;28;20223;-83
2022/07/04 00:10:32;;;;;;;2.87;1.87;;;14.40;99.90;;;;;;5003115;28;20191;-83
2022/07/04 00:12:58;;;;;;;4.43;2.40;;;14.30;99.90;;;;;;5004186;28;20231;-83
2022/07/04 00:15:24;;;;;;;3.77;2.30;;;14.30;99.90;;;;;;5006393;28;20215;-86
2022/07/04 00:17:50;;;;;;;2.73;2.33;;;14.30;99.90;;;;;;5006113;28;20730;-86
2022/07/04 00:20:16;;;;;;;2.40;2.03;;;14.20;99.90;;;;;;5044366;28;20222;-87
2022/07/04 00:22:42;;;;;;;3.20;2.37;;;14.20;99.90;;;;;;5005304;28;20206;-86
2022/07/04 00:25:08;;;;;;;2.53;2.03;;;14.10;99.90;;;;;;5010200;28;20411;-84
2022/07/04 00:27:34;;;;;;;3.87;1.97;;;14.10;99.90;;;;;;5013038;28;20225;-85
2022/07/04 00:29:59;;;;;;;3.80;2.23;;;14.00;99.90;;;;;;5016031;28;20216;-83
2022/07/04 00:32:25;;;;;;;3.73;2.53;;;14.00;99.90;;;;;;5007252;28;20234;-86
2022/07/04 00:34:51;;;;;;;2.70;2.47;;;14.00;99.90;;;;;;5010442;28;20230;-85
2022/07/04 00:37:16;;;;;;;3.13;2.30;;;14.00;99.90;;;;;;5005989;28;20222;-86
2022/07/04 00:39:42;;;;;;;3.30;2.60;;;13.90;99.90;;;;;;5037523;28;20302;-85
2022/07/04 00:42:08;;;;;;;3.83;2.13;;;13.90;99.90;;;;;;5001553;28;20247;-85
2022/07/04 00:44:36;;;;;;;2.60;2.10;;;13.90;99.90;;;;;;5002449;28;20228;-84
2022/07/04 00:47:03;;;;;;;3.20;2.10;;;13.90;99.90;;;;;;5039606;28;20578;-87
2022/07/04 00:49:28;;;;;;;5.67;2.20;;;13.80;99.90;;;;;;5004774;28;20207;-84
2022/07/04 00:51:55;;;;;;;2.53;2.03;;;13.80;99.90;;;;;;5005504;28;20325;-85
2022/07/04 00:54:26;;;;;;;3.73;2.70;;;13.80;99.90;;;;;;5010821;28;20233;-86
2022/07/04 00:56:53;;;;;;;2.63;2.23;;;13.80;99.90;;;;;;5006140;28;20266;-86
2022/07/04 00:59:19;;;;;;;3.40;2.50;;;13.80;99.90;;;;;;5002306;28;21143;-84
2022/07/04 01:01:45;;;;;;;3.43;2.90;;;13.70;99.90;;;;;;5007433;28;20215;-83
2022/07/04 01:04:11;;;;;;;3.33;1.97;;;13.70;99.90;;;;;;5009151;28;20183;-84
2022/07/04 01:06:37;;;;;;;3.23;2.27;;;13.70;99.90;;;;;;5006196;28;20216;-85
2022/07/04 01:09:05;;;;;;;8.23;2.63;;;13.70;99.90;;;;;;5007052;28;20222;-83
2022/07/04 01:11:30;;;;;;;2.57;2.10;;;13.70;99.90;;;;;;5010595;28;20207;-83
2022/07/04 01:13:57;;;;;;;3.43;2.13;;;13.70;99.90;;;;;;5021863;28;20218;-84
2022/07/04 01:16:25;;;;;;;4.17;2.93;;;13.60;99.90;;;;;;5010091;28;20195;-82
2022/07/04 01:18:52;;;;;;;11.07;2.80;;;13.70;99.90;;;;;;5046114;28;20207;-84
2022/07/04 01:21:18;;;;;;;4.90;2.40;;;13.70;99.90;;;;;;5004604;28;20219;-86
2022/07/04 01:23:44;;;;;;;5.07;2.37;;;13.60;99.90;;;;;;5007992;28;20445;-85
2022/07/04 01:26:11;;;;;;;2.87;2.03;;;13.60;99.90;;;;;;5009669;28;20673;-84
2022/07/04 01:28:37;;;;;;;3.57;2.33;;;13.60;99.90;;;;;;5042990;28;20183;-85
2022/07/04 01:31:03;;;;;;;4.17;2.53;;;13.60;99.90;;;;;;5010549;28;21038;-83
2022/07/04 01:33:29;;;;;;;3.77;2.50;;;13.60;99.90;;;;;;5006823;28;20306;-84
2022/07/04 01:35:55;;;;;;;3.67;2.70;;;13.60;99.90;;;;;;5007352;28;20215;-85
2022/07/04 01:38:21;;;;;;;3.43;2.57;;;13.60;99.90;;;;;;5007279;28;20259;-85
2022/07/04 01:40:47;;;;;;;7.13;2.83;;;13.50;99.90;;;;;;5004211;28;20215;-85
2022/07/04 01:43:12;;;;;;;3.77;2.70;;;13.50;99.90;;;;;;5007213;28;20195;-84
2022/07/04 01:45:38;;;;;;;3.93;2.53;;;13.50;99.90;;;;;;4991069;28;20277;-83
2022/07/04 01:48:09;;;;;;;4.40;2.10;;;13.50;99.90;;;;;;5005726;28;20310;-84
2022/07/04 01:50:36;;;;;;;3.20;2.40;;;13.40;99.90;;;;;;5006848;28;20222;-87
2022/07/04 01:53:02;;;;;;;2.80;2.33;;;13.40;99.90;;;;;;5009368;28;20462;-85
2022/07/04 01:55:29;;;;;;;2.73;2.37;;;13.50;99.90;;;;;;5010225;28;20195;-88
2022/07/04 01:57:55;;;;;;;2.40;2.20;;;13.50;99.90;;;;;;5003611;28;20234;-87
2022/07/04 02:03:06;;;;;;;12.40;2.43;;;13.50;99.90;;;;;;5008876;28;20219;-86
2022/07/04 02:05:31;;;;;;;3.53;2.40;;;13.40;99.90;;;;;;5005140;28;20218;-87
2022/07/04 02:07:57;;;;;;;3.00;2.40;;;13.40;99.90;;;;;;5039129;28;20712;-87
2022/07/04 02:10:23;;;;;;;5.07;2.43;;;13.40;99.90;;;;;;5023124;28;20310;-87
2022/07/04 02:13:01;;;;;;;3.47;2.63;;;13.50;99.90;;;;;;5009386;28;20481;-85
2022/07/04 02:15:31;;;;;;;3.57;2.23;;;13.40;99.90;;;;;;5000730;28;20242;-83
2022/07/04 02:17:58;;;;;;;3.43;2.37;;;13.50;99.90;;;;;;5008485;28;21143;-85
2022/07/04 02:20:24;;;;;;;2.17;1.97;;;13.50;99.90;;;;;;5006589;28;20238;-87
2022/07/04 02:22:50;;;;;;;4.90;2.60;;;13.50;99.90;;;;;;5004185;28;20215;-84
2022/07/04 02:25:16;;;;;;;3.20;2.60;;;13.50;99.90;;;;;;5004636;28;20191;-83
2022/07/04 02:27:41;;;;;;;6.60;2.80;;;13.50;99.90;;;;;;5005394;28;20604;-86
2022/07/04 02:30:08;;;;;;;3.90;2.97;;;13.50;99.90;;;;;;5001495;28;20211;-86
2022/07/04 02:32:35;;;;;;;3.07;2.50;;;13.50;99.90;;;;;;5009020;28;20645;-83
2022/07/04 02:35:01;;;;;;;3.47;2.67;;;13.60;99.90;;;;;;5005625;28;20215;-85
2022/07/04 02:37:27;;;;;;;4.27;3.10;;;13.60;99.90;;;;;;5035561;28;20215;-85
2022/07/04 02:39:52;;;;;;;3.70;3.13;;;13.60;99.90;;;;;;5036593;28;20179;-85
2022/07/04 02:42:19;;;;;;;6.33;2.67;;;13.60;99.90;;;;;;5006472;28;20305;-85
2022/07/04 02:44:45;;;;;;;4.87;3.67;;;13.60;99.90;;;;;;5005031;28;20224;-83
2022/07/04 02:47:11;;;;;;;2.90;2.17;;;13.60;99.90;;;;;;5009792;28;20240;-85
2022/07/04 02:49:37;;;;;;;4.03;2.13;;;13.50;99.90;;;;;;5008652;28;20942;-84
2022/07/04 02:52:03;;;;;;;4.07;2.50;;;13.50;99.90;;;;;;5004095;28;20262;-83
2022/07/04 02:54:28;;;;;;;4.77;2.97;;;13.50;99.90;;;;;;5020134;28;20266;-85
2022/07/04 02:56:54;;;;;;;5.77;2.60;;;13.50;99.90;;;;;;5014979;28;20341;-83
2022/07/04 02:59:20;;;;;;;3.33;2.07;;;13.50;99.90;;;;;;5004280;28;20251;-85
2022/07/04 03:01:46;;;;;;;5.77;3.07;;;13.50;99.90;;;;;;5016739;28;20423;-85
2022/07/04 03:04:11;;;;;;;3.20;2.50;;;13.50;99.90;;;;;;5007082;28;20252;-85
2022/07/04 03:06:39;;;;;;;5.20;3.47;;;13.50;99.90;;;;;;5002953;28;21333;-84
2022/07/04 03:09:06;;;;;;;6.57;3.17;;;13.60;99.90;;;;;;5001938;28;20225;-85
2022/07/04 03:11:32;;;;;;;3.83;2.93;;;13.60;99.90;;;;;;5004408;28;20215;-84
2022/07/04 03:13:58;;;;;;;5.70;2.90;;;13.60;99.90;;;;;;5003829;28;20270;-87
2022/07/04 03:16:24;;;;;;;5.50;3.27;;;13.60;99.90;;;;;;5004471;28;20875;-84
2022/07/04 03:18:49;;;;;;;4.90;3.23;;;13.60;99.90;;;;;;5008204;28;20187;-86
2022/07/04 03:21:15;;;;;;;4.10;2.83;;;13.60;99.90;;;;;;5003369;28;20219;-86
2022/07/04 03:23:41;;;;;;;12.17;3.43;;;13.70;99.90;;;;;;5008091;28;20698;-84
2022/07/04 03:26:06;;;;;;;4.63;3.20;;;13.60;99.90;;;;;;5008117;28;20226;-84
2022/07/04 03:28:32;;;;;;;5.07;3.93;;;13.70;99.90;;;;;;5038602;28;20211;-83
2022/07/04 03:30:58;;;;;;;3.77;2.80;;;13.70;99.90;;;;;;5038517;28;20187;-84
2022/07/04 03:33:24;;;;;;;9.00;3.50;;;13.70;99.90;;;;;;5002378;28;20218;-84
2022/07/04 03:35:50;;;;;;;3.87;2.50;;;13.70;99.90;;;;;;5007011;28;20305;-83
2022/07/04 03:38:16;;;;;;;3.53;2.37;;;13.70;99.90;;;;;;5006723;28;20269;-83
2022/07/04 03:40:42;;;;;;;3.10;2.80;;;13.80;99.90;;;;;;5005012;28;20191;-82
2022/07/04 03:43:07;;;;;;;3.13;2.83;;;13.80;99.90;;;;;;5001842;28;20202;-83
2022/07/04 03:45:33;;;;;;;4.13;2.93;;;13.80;99.90;;;;;;5004184;28;20214;-84
2022/07/04 03:48:02;;;;;;;4.87;2.70;;;13.80;99.90;;;;;;5015838;28;20223;-83
2022/07/04 03:50:28;;;;;;;4.37;2.60;;;13.90;99.90;;;;;;4999322;28;20207;-84
2022/07/04 03:52:53;;;;;;;9.17;3.63;;;13.90;99.90;;;;;;5034018;28;20231;-84
2022/07/04 03:55:19;;;;;;;3.83;2.83;;;13.90;99.90;;;;;;5001342;28;20203;-83
2022/07/04 03:57:45;;;;;;;4.43;3.03;;;14.00;99.90;;;;;;5002327;28;20258;-82
2022/07/04 04:00:11;;;;;;;3.87;2.80;;;14.00;99.90;;;;;;4999902;28;20231;-84
2022/07/04 04:02:37;;;;;;;3.47;2.90;;;14.00;99.90;;;;;;5004179;28;20215;-84
2022/07/04 04:07:48;;;;;;;5.47;2.50;;;14.30;99.90;;;;;;5005428;28;20226;-82
2022/07/04 04:10:14;;;;;;;4.07;3.27;;;14.30;99.90;;;;;;5001365;28;20211;-83
2022/07/04 04:12:40;;;;;;;4.10;2.30;;;14.40;99.90;;;;;;5000709;28;21118;-83
2022/07/04 04:15:07;;;;;;;2.97;2.43;;;14.50;99.90;;;;;;5004630;28;20739;-83
2022/07/04 04:17:33;;;;;;;3.90;2.43;;;14.60;99.90;;;;;;4999391;28;21199;-83
2022/07/04 04:19:59;;;;;;;4.50;2.30;;;14.60;99.90;;;;;;5006040;28;20219;-82
2022/07/04 04:22:27;;;;;;;7.47;2.83;;;14.60;99.90;;;;;;5038571;28;20265;-84
2022/07/04 04:24:52;;;;;;;4.30;2.37;;;14.70;99.90;;;;;;5018886;28;20195;-83
2022/07/04 04:27:18;;;;;;;3.43;2.00;;;14.70;99.90;;;;;;5006847;28;20226;-83
2022/07/04 04:29:44;;;;;;;2.90;2.70;;;14.70;99.90;;;;;;5008070;28;20211;-84
2022/07/04 04:32:09;;;;;;;3.83;2.63;;;14.80;99.90;;;;;;5004142;28;20211;-84
2022/07/04 04:34:35;;;;;;;7.83;3.10;;;14.90;99.90;;;;;;5007002;28;20257;-83
2022/07/04 04:37:01;;;;;;;3.07;2.73;;;15.00;99.90;;;;;;5004698;28;20249;-83
2022/07/04 04:39:26;;;;;;;5.27;2.53;;;15.10;99.90;;;;;;5005164;28;20219;-82
2022/07/04 04:41:52;;;;;;;4.10;2.63;;;15.00;99.90;;;;;;5007840;28;20219;-84
2022/07/04 04:44:19;;;;;;;5.30;2.83;;;15.00;99.90;;;;;;5004365;28;21005;-84
2022/07/04 04:46:45;;;;;;;3.33;2.47;;;15.00;99.90;;;;;;5011940;28;20222;-83
2022/07/04 04:49:11;;;;;;;2.57;2.37;;;15.10;99.90;;;;;;5011811;28;20183;-84
2022/07/04 04:51:38;;;;;;;4.10;2.60;;;15.10;99.90;;;;;;5007509;28;21064;-82
2022/07/04 04:54:04;;;;;;;3.63;2.70;;;15.20;99.90;;;;;;5006804;28;20227;-83
2022/07/04 04:56:30;;;;;;;2.60;2.13;;;15.30;99.90;;;;;;5007675;28;20222;-82
2022/07/04 04:58:56;;;;;;;4.90;2.70;;;15.60;99.90;;;;;;5008827;28;20272;-83
2022/07/04 05:01:21;;;;;;;5.07;2.97;;;15.70;99.90;;;;;;4989299;28;20309;-83
2022/07/04 05:03:47;;;;;;;6.13;2.20;;;15.90;99.90;;;;;;5007046;28;20708;-84
2022/07/04 05:06:13;;;;;;;3.27;2.97;;;16.00;99.90;;;;;;5005113;28;20292;-83
2022/07/04 05:08:39;;;;;;;3.17;2.13;;;16.00;99.90;;;;;;5006855;28;20580;-82
2022/07/04 05:11:05;;;;;;;5.03;2.90;;;16.10;99.90;;;;;;5006206;28;20230;-82
2022/07/04 05:13:30;;;;;;;4.33;2.57;;;16.40;99.90;;;;;;5007955;28;20229;-83
2022/07/04 05:15:56;;;;;;;3.30;2.80;;;16.80;99.90;;;;;;5008957;28;20195;-83
2022/07/04 05:18:22;;;;;;;3.80;2.30;;;17.10;99.90;;;;;;5008425;28;20223;-83
2022/07/04 05:20:47;;;;;;;6.70;2.03;;;17.50;99.90;;;;;;5022517;28;20226;-83
2022/07/04 05:23:13;;;;;;;3.27;2.20;;;19.00;99.90;;;;;;5002272;28;21139;-86
2022/07/04 05:25:39;;;;;;;4.80;2.07;;;20.30;99.90;;;;;;5006839;28;20281;-83
2022/07/04 05:28:05;;;;;;;1.67;1.57;;;20.50;99.90;;;;;;4990298;28;20253;-83
2022/07/04 05:30:31;;;;;;;2.17;1.90;;;19.80;99.90;;;;;;5003538;28;20233;-83
2022/07/04 05:32:58;;;;;;;4.83;1.90;;;20.90;99.90;;;;;;5034506;28;20216;-83
2022/07/04 05:35:24;;;;;;;3.23;2.07;;;22.90;99.90;;;;;;5002646;28;20218;-81
2022/07/04 05:37:50;;;;;;;2.57;1.90;;;25.00;99.90;;;;;;5006260;28;20246;-82
2022/07/04 05:40:15;;;;;;;3.77;2.30;;;28.00;99.90;;;;;;5008294;28;20253;-82
2022/07/04 05:42:41;;;;;;;2.37;1.60;;;29.40;99.90;;;;;;5035183;28;20228;-82
2022/07/04 05:45:07;;;;;;;4.07;2.37;;;28.90;99.90;;;;;;5003399;28;20219;-83
2022/07/04 05:47:33;;;;;;;2.10;1.90;;;26.90;99.90;;;;;;5039392;28;20247;-82
2022/07/04 05:50:00;;;;;;;2.07;1.60;;;27.80;99.90;;;;;;5002511;28;20302;-83
2022/07/04 05:52:26;;;;;;;2.10;1.87;;;28.70;99.90;;;;;;5002114;28;20238;-82
2022/07/04 05:54:51;;;;;;;2.60;2.20;;;29.00;99.90;;;;;;5006926;28;20199;-82
2022/07/04 05:57:17;;;;;;;4.13;1.38;;;28.60;99.90;;;;;;5003485;28;20265;-82
2022/07/04 05:59:44;;;;;;;3.05;1.55;;;28.50;99.90;;;;;;5009742;28;20233;-83
2022/07/04 06:02:10;;;;;;;4.85;1.60;;;28.60;99.90;;;;;;5002369;28;20234;-83
2022/07/04 06:04:36;;;;;;;3.00;1.70;;;30.20;99.90;;;;;;5005056;28;20191;-84
2022/07/04 06:07:02;;;;;;;1.42;1.33;;;30.40;99.90;;;;;;5038433;28;20954;-83
2022/07/04 06:09:28;;;;;;;1.50;1.27;;;28.40;99.90;;;;;;5004130;28;20245;-84
2022/07/04 06:11:53;;;;;;;1.50;1.20;;;26.50;99.90;;;;;;4989069;28;20309;-83
2022/07/04 06:14:19;;;;;;;1.98;1.38;;;26.40;99.90;;;;;;5009495;28;20215;-83
2022/07/04 06:16:45;;;;;;;2.55;1.20;;;25.20;99.90;;;;;;5001585;28;20265;-82
2022/07/04 06:19:11;;;;;;;0.93;0.88;;;23.90;99.90;;;;;;5005913;28;20248;-81
2022/07/04 06:21:36;;;;;;;2.35;0.93;;;23.90;99.90;;;;;;5002040;28;20722;-83
2022/07/04 06:24:03;;;;;;;2.00;0.77;;;23.00;99.90;;;;;;5001962;28;20985;-83
2022/07/04 06:26:29;;;;;;;1.63;1.20;;;22.00;99.90;;;;;;5004148;28;20743;-84
2022/07/04 06:28:55;;;;;;;2.45;1.05;;;22.40;99.90;;;;;;5006069;28;20222;-83
2022/07/04 06:31:21;;;;;;;0.60;0.60;;;23.80;99.90;;;;;;5004464;28;20187;-82
2022/07/04 06:36:32;;;;;;;1.52;1.00;;;25.20;99.90;;;;;;5001244;28;20223;-83
2022/07/04 06:38:58;;;;;;;1.23;1.10;;;25.50;99.90;;;;;;5000513;28;20222;-82
2022/07/04 06:41:24;;;;;;;1.83;0.75;;;25.10;99.90;;;;;;5002623;28;20234;-82
2022/07/04 06:43:50;;;;;;;2.03;0.98;;;24.30;99.90;;;;;;5001517;28;20363;-83
2022/07/04 06:46:15;;;;;;;0.90;0.90;;;24.30;99.90;;;;;;5006881;28;20194;-82
2022/07/04 06:48:41;;;;;;;5.68;1.10;;;24.80;99.90;;;;;;5001826;28;20711;-83
2022/07/04 06:51:07;;;;;;;1.23;0.80;;;25.20;99.90;;;;;;5033320;28;20228;-83
2022/07/04 06:53:32;;;;;;;1.58;1.20;;;24.90;99.90;;;;;;5001889;28;20250;-83
2022/07/04 06:55:58;;;;;;;1.90;0.93;;;24.40;99.90;;;;;;5001574;28;20234;-81
2022/07/04 06:58:24;;;;;;;3.45;1.00;;;24.30;99.90;;;;;;5002685;28;20694;-82
2022/07/04 07:00:50;;;;;;;2.17;1.00;;;24.10;99.90;;;;;;5000276;28;20190;-84
2022/07/04 07:03:15;;;;;;;1.58;0.90;;;24.20;99.90;;;;;;5000428;28;20700;-83
2022/07/04 07:05:42;;;;;;;1.63;0.93;;;25.00;99.90;;;;;;5001882;28;20223;-83
2022/07/04 07:08:08;;;;;;;2.35;0.90;;;24.00;99.90;;;;;;5002537;28;20230;-82
2022/07/04 07:10:35;;;;;;;1.00;0.90;;;23.00;99.90;;;;;;5019774;28;20180;-83
2022/07/04 07:13:02;;;;;;;0.70;0.70;;;23.60;99.90;;;;;;4999864;28;20191;-82
2022/07/04 07:15:28;;;;;;;1.10;0.85;;;23.50;99.90;;;;;;4998730;28;20326;-82
2022/07/04 07:17:53;;;;;;;2.90;0.82;;;23.30;99.90;;;;;;4999102;28;20288;-85
2022/07/04 07:20:19;;;;;;;1.30;0.93;;;22.80;99.90;;;;;;4999204;28;20700;-83
2022/07/04 07:22:45;;;;;;;1.08;1.08;;;21.80;99.90;;;;;;5001168;28;20258;-82
2022/07/04 07:25:12;;;;;;;4.55;1.10;;;22.50;99.90;;;;;;4998998;28;20226;-83
2022/07/04 07:27:39;;;;;;;1.63;0.60;;;24.10;99.90;;;;;;4997506;28;20211;-83
2022/07/04 07:30:05;;;;;;;0.60;0.60;;;24.30;99.90;;;;;;4998675;28;20211;-82
2022/07/04 07:32:31;;;;;;;1.00;0.68;;;23.20;99.90;;;;;;4996004;28;20222;-85
2022/07/04 07:34:57;;;;;;;0.80;0.75;;;24.60;99.90;;;;;;4998520;28;20210;-84
2022/07/04 07:37:23;;;;;;;0.82;0.75;;;26.00;99.90;;;;;;5004373;28;20219;-83
2022/07/04 07:39:49;;;;;;;1.33;0.82;;;26.10;99.90;;;;;;4986386;28;20211;-82
2022/07/04 07:42:16;;;;;;;0.75;0.65;;;27.30;99.90;;;;;;4998637;28;20734;-84
2022/07/04 07:44:45;;;;;;;1.42;0.82;;;27.70;99.90;;;;;;5004433;28;20277;-83
2022/07/04 07:47:11;;;;;;;2.38;1.10;;;28.30;99.90;;;;;;5029299;28;20290;-84
2022/07/04 07:49:37;;;;;;;2.25;0.70;;;27.70;99.90;;;;;;5029495;28;20218;-83
2022/07/04 07:52:03;;;;;;;1.52;0.77;;;26.00;99.90;;;;;;5000938;28;20366;-84
2022/07/04 07:54:28;;;;;;;0.95;0.70;;;26.10;99.90;;;;;;5034503;28;20269;-82
2022/07/04 07:56:54;;;;;;;1.05;0.70;;;27.20;99.90;;;;;;5006051;28;20363;-83
2022/07/04 07:59:20;;;;;;;5.68;1.00;;;27.80;99.90;;;;;;5003432;28;20734;-83
2022/07/04 08:01:45;;;;;;;1.17;0.95;;;29.30;99.90;;;;;;5003223;28;20227;-84
2022/07/04 08:06:56;;;;;;;0.80;0.80;;;26.80;99.90;;;;;;5002309;28;20211;-84
2022/07/04 08:09:21;;;;;;;1.98;1.10;;;24.00;99.90;;;;;;4986053;28;20225;-83
2022/07/04 08:11:47;;;;;;;2.60;0.80;;;22.90;99.90;;;;;;5005608;28;20227;-84
2022/07/04 08:14:13;;;;;;;3.80;1.05;;;22.00;99.90;;;;;;5002743;28;20211;-83
2022/07/04 08:16:40;;;;;;;2.92;0.88;;;21.40;99.90;;;;;;5002954;28;20241;-83
2022/07/04 08:19:06;;;;;;;1.20;1.10;;;21.00;99.90;;;;;;5004896;28;21079;-82
2022/07/04 08:21:32;;;;;;;0.80;0.77;;;21.40;99.90;;;;;;5006348;28;20226;-81
2022/07/04 08:23:57;;;;;;;1.00;0.90;;;21.20;99.90;;;;;;5005654;28;20219;-84
2022/07/04 08:26:24;;;;;;;1.33;1.00;;;21.00;99.90;;;;;;5003846;28;20211;-83
2022/07/04 08:28:51;;;;;;;3.13;1.38;;;20.80;99.90;;;;;;5011247;28;20349;-86
2022/07/04 08:31:18;;;;;;;2.92;1.00;;;22.00;99.90;;;;;;5008756;28;20184;-86
2022/07/04 08:33:46;;;;;;;1.63;1.00;;;22.80;99.90;;;;;;5008235;28;20229;-85
2022/07/04 08:36:12;;;;;;;1.17;1.08;;;23.00;99.90;;;;;;5008298;28;20393;-85
2022/07/04 08:38:38;;;;;;;0.85;0.80;;;23.20;99.90;;;;;;5010550;28;20223;-85
2022/07/04 08:41:04;;;;;;;2.22;0.88;;;23.50;99.90;;;;;;5005971;28;20235;-86
2022/07/04 08:43:33;;;;;;;0.97;0.90;;;22.00;99.90;;;;;;5007691;28;20295;-83
2022/07/04 08:46:02;;;;;;;1.40;0.70;;;21.40;99.90;;;;;;5024958;28;20641;-82
2022/07/04 08:48:30;;;;;;;3.55;0.80;;;20.70;99.90;;;;;;5012070;28;20223;-83
2022/07/04 08:51:03;;;;;;;2.53;1.17;;;20.00;99.90;;;;;;5008139;28;20710;-83
2022/07/04 08:53:30;;;;;;;1.20;1.10;;;20.60;99.90;;;;;;5025456;28;20239;-83
2022/07/04 08:58:45;;;;;;;1.57;0.90;;;22.60;99.90;;;;;;5006848;28;20202;-82
2022/07/04 09:01:14;;;;;;;2.47;1.37;;;21.70;99.90;;;;;;5004090;28;20917;-85
2022/07/04 09:03:44;;;;;;;3.07;1.00;;;20.90;99.90;;;;;;4989635;28;20729;-84
2022/07/04 09:06:12;;;;;;;1.10;0.80;;;20.40;99.90;;;;;;5005363;28;20567;-83
2022/07/04 09:08:38;;;;;;;1.20;0.97;;;20.00;99.90;;;;;;5002440;28;20226;-83
2022/07/04 09:11:05;;;;;;;0.97;0.97;;;20.10;99.90;;;;;;5001800;28;20215;-82
2022/07/04 09:13:31;;;;;;;1.30;1.20;;;21.10;99.90;;;;;;5004408;28;20199;-83
2022/07/04 09:15:57;;;;;;;1.00;0.90;;;22.60;99.90;;;;;;5004047;28;20191;-83
2022/07/04 09:18:28;;;;;;;1.20;1.10;;;23.60;99.90;;;;;;5001905;28;20227;-83
2022/07/04 09:20:59;;;;;;;3.50;0.97;;;23.10;99.90;;;;;;5003325;28;20281;-83
2022/07/04 09:23:28;;;;;;;1.17;1.07;;;22.20;99.90;;;;;;5006010;28;20430;-83
2022/07/04 09:26:20;;;;;;;2.13;1.00;;;22.00;99.90;;;;;;5004876;28;20572;-82
2022/07/04 09:28:58;;;;;;;2.20;1.00;;;22.40;99.90;;;;;;5003289;28;21140;-82
2022/07/04 09:31:30;;;;;;;1.00;0.90;;;23.30;99.90;;;;;;5009428;28;20285;-81
2022/07/04 09:33:58;;;;;;;1.45;0.80;;;24.00;99.90;;;;;;5009337;28;20898;-83
2022/07/04 09:36:29;;;;;;;1.17;0.93;;;24.80;99.90;;;;;;5004516;28;20321;-83
2022/07/04 09:39:17;;;;;;;1.58;0.80;;;25.00;99.90;;;;;;5008010;28;20702;-82
2022/07/04 09:42:03;;;;;;;0.80;0.80;;;24.40;99.90;;;;;;5010213;28;20230;-81
2022/07/04 09:44:42;;;;;;;1.20;1.02;;;24.20;99.90;;;;;;5003592;28;20249;-82
2022/07/04 09:47:29;;;;;;;4.32;0.98;;;23.40;99.90;;;;;;5001190;28;20211;-81
2022/07/04 09:50:05;;;;;;;2.22;1.20;;;23.10;99.90;;;;;;5002407;28;20211;-83
2022/07/04 09:52:31;;;;;;;2.30;1.17;;;23.30;99.90;;;;;;4963995;28;1157876;-82
2022/07/04 09:55:05;;;;;;;0.77;0.77;;;23.80;99.90;;;;;;5034988;28;20204;-81
2022/07/04 09:57:32;;;;;;;1.17;0.88;;;24.10;99.90;;;;;;5003084;28;20293;-81
2022/07/04 10:00:26;;;;;;;1.45;1.10;;;24.30;99.90;;;;;;5017584;28;20230;-81
2022/07/04 10:02:53;;;;;;;2.78;1.27;;;24.50;99.90;;;;;;5002418;28;20274;-82
2022/07/04 10:05:24;;;;;;;0.90;0.82;;;24.30;99.90;;;;;;5002885;28;20219;-81
2022/07/04 10:07:51;;;;;;;0.80;0.60;;;23.40;99.90;;;;;;5004026;28;20242;-81
2022/07/04 10:10:34;;;;;;;0.98;0.80;;;23.00;99.90;;;;;;5004450;28;20207;-82
2022/07/04 10:13:08;;;;;;;1.60;0.90;;;23.20;99.90;;;;;;5004880;28;20213;-81
2022/07/04 10:15:38;;;;;;;1.08;0.90;;;23.90;99.90;;;;;;5002621;28;20702;-83
2022/07/04 10:18:05;;;;;;;1.30;1.20;;;23.20;99.90;;;;;;5001490;28;21065;-82
2022/07/04 10:20:30;;;;;;;1.58;1.00;;;23.60;99.90;;;;;;5031296;28;20216;-83
2022/07/04 10:22:57;;;;;;;2.78;0.90;;;23.90;99.90;;;;;;4999471;28;20679;-81
2022/07/04 10:25:23;;;;;;;2.55;1.15;;;24.00;99.90;;;;;;5000690;28;20250;-81
2022/07/04 10:27:50;;;;;;;2.25;1.00;;;23.50;99.90;;;;;;5008635;28;20215;-82
2022/07/04 10:30:24;;;;;;;0.95;0.95;;;22.80;99.90;;;;;;5036074;28;20668;-82
2022/07/04 10:32:51;;;;;;;1.02;0.93;;;22.40;99.90;;;;;;5002140;28;20214;-81
2022/07/04 10:35:37;;;;;;;1.10;1.00;;;22.00;99.90;;;;;;5001427;28;20678;-82
2022/07/04 10:38:09;;;;;;;1.05;0.95;;;22.80;99.90;;;;;;5001485;28;20373;-84
2022/07/04 10:40:57;;;;;;;1.30;1.20;;;23.00;99.90;;;;;;5002098;28;20191;-82
2022/07/04 10:46:13;;;;;;;3.67;0.82;;;23.10;99.90;;;;;;5005460;28;20257;-83
2022/07/04 10:48:56;;;;;;;4.63;1.13;;;23.30;99.90;;;;;;5002601;28;20230;-80
2022/07/04 10:51:41;;;;;;;1.85;0.90;;;22.90;99.90;;;;;;5001024;28;20229;-81
2022/07/04 10:54:14;;;;;;;0.75;0.75;;;23.50;99.90;;;;;;5026207;28;20777;-83
2022/07/04 10:56:50;;;;;;;3.00;1.08;;;24.20;99.90;;;;;;5001970;28;20284;-82
2022/07/04 10:59:25;;;;;;;1.13;0.70;;;23.60;99.90;;;;;;5032462;28;20924;-83
2022/07/04 11:02:17;;;;;;;2.42;1.30;;;23.40;99.90;;;;;;5001811;28;20298;-83
2022/07/04 11:04:53;;;;;;;2.53;0.90;;;23.30;99.90;;;;;;5004688;28;20187;-81
2022/07/04 11:07:23;;;;;;;4.00;0.90;;;22.90;99.90;;;;;;5005353;28;20745;-82
2022/07/04 11:10:11;;;;;;;1.10;0.68;;;23.20;99.90;;;;;;5003250;28;20225;-82
2022/07/04 11:12:57;;;;;;;2.10;0.80;;;22.60;99.90;;;;;;5005029;28;20215;-82
2022/07/04 11:15:32;;;;;;;2.22;0.90;;;22.70;99.90;;;;;;5000839;28;20233;-82
2022/07/04 11:18:03;;;;;;;1.27;1.02;;;22.60;99.90;;;;;;5000887;28;20778;-81
2022/07/04 11:20:36;;;;;;;0.80;0.75;;;22.10;99.90;;;;;;5002469;28;20753;-81
2022/07/04 11:23:13;;;;;;;0.70;0.70;;;22.00;99.90;;;;;;5006307;28;20229;-81
2022/07/04 11:25:45;;;;;;;3.33;0.60;;;21.90;99.90;;;;;;5001678;28;20191;-82
2022/07/04 11:28:28;;;;;;;0.60;0.60;;;22.50;99.90;;;;;;5002237;28;20183;-81
2022/07/04 11:30:56;;;;;;;1.00;0.75;;;22.20;99.90;;;;;;5001152;28;20249;-81
2022/07/04 11:33:24;;;;;;;4.13;1.17;;;22.00;99.90;;;;;;5002254;28;20231;-82
2022/07/04 11:36:11;;;;;;;0.95;0.95;;;22.40;99.90;;;;;;5005759;28;20242;-83
2022/07/04 11:38:58;;;;;;;1.10;0.93;;;22.30;99.90;;;;;;5002489;28;20234;-81
2022/07/04 11:47:09;;;;;;;2.67;0.70;;;21.60;99.90;;;;;;5004140;28;20219;-82
2022/07/04 11:49:35;;;;;;;2.60;1.30;;;21.00;99.90;;;;;;5004353;28;20632;-82
2022/07/04 11:52:01;;;;;;;1.40;0.93;;;21.10;99.90;;;;;;5004948;28;20234;-81
2022/07/04 11:54:27;;;;;;;3.07;0.93;;;21.40;99.90;;;;;;5001568;28;20715;-81
2022/07/04 11:57:12;;;;;;;1.80;0.90;;;21.60;99.90;;;;;;5001991;28;20238;-81
2022/07/04 11:59:38;;;;;;;3.67;1.23;;;21.20;99.90;;;;;;5001710;28;20222;-81
2022/07/04 12:02:12;;;;;;;1.97;0.60;;;21.50;99.90;;;;;;5000154;28;20301;-82
2022/07/04 12:04:41;;;;;;;7.37;1.20;;;21.30;99.90;;;;;;5002502;28;20192;-82
2022/07/04 12:07:15;;;;;;;0.50;0.50;;;21.60;99.90;;;;;;5001199;28;20664;-81
2022/07/04 12:09:41;;;;;;;1.57;1.00;;;21.30;99.90;;;;;;5027056;28;20321;-81
2022/07/04 12:12:07;;;;;;;1.30;0.87;;;21.00;99.90;;;;;;4999641;28;20220;-82
2022/07/04 12:14:33;;;;;;;0.57;0.57;;;21.50;99.90;;;;;;5042120;28;20696;-81
2022/07/04 12:17:13;;;;;;;0.47;0.47;;;21.80;99.90;;;;;;4998514;28;20292;-81
2022/07/04 12:19:56;;;;;;;2.37;1.10;;;21.60;99.90;;;;;;5001163;28;20327;-82
2022/07/04 12:22:25;;;;;;;3.50;1.10;;;21.30;99.90;;;;;;5005448;28;20183;-83
2022/07/04 12:24:50;;;;;;;1.80;0.53;;;21.40;99.90;;;;;;5000854;28;20219;-82
2022/07/04 12:27:19;;;;;;;0.40;0.40;;;21.40;99.90;;;;;;5002300;28;20234;-82
2022/07/04 12:29:49;;;;;;;2.37;0.77;;;20.90;99.90;;;;;;5003874;28;20218;-82
2022/07/04 12:32:15;;;;;;;1.63;0.80;;;20.90;99.90;;;;;;5032694;28;20221;-81
2022/07/04 12:34:41;;;;;;;1.10;1.00;;;20.90;99.90;;;;;;5003062;28;20274;-82
2022/07/04 12:37:12;;;;;;;0.60;0.60;;;21.30;99.90;;;;;;5004810;28;20220;-81
2022/07/04 12:39:39;;;;;;;0.77;0.77;;;20.70;99.90;;;;;;5004981;28;20308;-81
2022/07/04 12:42:15;;;;;;;2.13;0.80;;;20.70;99.90;;;;;;4992756;28;20219;-82
2022/07/04 12:44:43;;;;;;;4.27;0.70;;;20.60;99.90;;;;;;5036196;28;20243;-81
2022/07/04 12:47:10;;;;;;;0.93;0.60;;;21.00;99.90;;;;;;5005586;28;20219;-81
2022/07/04 12:49:36;;;;;;;1.27;0.77;;;21.10;99.90;;;;;;5006088;28;20230;-81
2022/07/04 12:52:10;;;;;;;0.60;0.60;;;21.10;99.90;;;;;;5004892;28;21264;-81
2022/07/04 12:54:38;;;;;;;0.50;0.50;;;21.20;99.90;;;;;;5004542;28;20277;-82
2022/07/04 12:57:06;;;;;;;1.20;1.10;;;21.20;99.90;;;;;;5006602;28;20227;-82
2022/07/04 12:59:32;;;;;;;0.90;0.53;;;21.00;99.90;;;;;;5004441;28;20224;-81
2022/07/04 13:01:58;;;;;;;0.30;0.30;;;20.70;99.90;;;;;;5008322;28;20653;-81
2022/07/04 13:04:23;;;;;;;0.50;0.50;;;20.80;99.90;;;;;;5006321;28;20188;-80
2022/07/04 13:06:49;;;;;;;3.17;0.87;;;21.00;99.90;;;;;;5004067;28;20194;-81
2022/07/04 13:09:15;;;;;;;0.60;0.60;;;21.00;99.90;;;;;;5009759;28;20277;-82
2022/07/04 13:14:25;;;;;;;1.53;0.63;;;20.90;99.90;;;;;;5005042;28;20310;-81